This is the latest recevied weather packets stored in our database for station/object OE-11099. If no packets are shown the sender has not sent any weather packets the latest 10 day(s).
| Time | Temp. | Humidity | Pressure | Rain* | Wind** | Luminosity | Snow |
|---|---|---|---|---|---|---|---|
| 1788082879 | 25° C | 52% | 1014.9 hPa | 0 mm | - | 685 W/m² | - |
| 1788082506 | 25.56° C | 53% | 1014.9 hPa | 0 mm | - | 672 W/m² | - |
| 1788081905 | 25° C | 53% | 1015 hPa | 0 mm | - | 665 W/m² | - |
| 1788081079 | 25° C | 53% | 1015 hPa | 0 mm | - | 658 W/m² | - |
| 1788080705 | 24.44° C | 51% | 1015 hPa | 0 mm | - | 625 W/m² | - |
| 1788080106 | 22.78° C | 55% | 1015.5 hPa | 0 mm | - | 572 W/m² | - |
| 1788079279 | 22.78° C | 51% | 1015.6 hPa | 0 mm | - | 578 W/m² | - |
| 1788078905 | 22.22° C | 53% | 1015.8 hPa | 0 mm | - | 539 W/m² | - |
| 1788078306 | 21.67° C | 55% | 1015.9 hPa | 0 mm | - | 532 W/m² | - |
| 1788077478 | 21.67° C | 58% | 1016 hPa | 0 mm | - | 525 W/m² | - |
| 1788077106 | 21.67° C | 57% | 1016.2 hPa | 0 mm | - | 492 W/m² | - |
| 1788076506 | 21.11° C | 60% | 1016.2 hPa | 0 mm | - | 465 W/m² | - |
| 1788075678 | 20.56° C | 61% | 1016.6 hPa | 0 mm | - | 439 W/m² | - |
| 1788075305 | 20° C | 63% | 1016.7 hPa | 0 mm | - | 412 W/m² | - |
| 1788074706 | 19.44° C | 69% | 1016.9 hPa | 0 mm | - | 386 W/m² | - |
| 1788073879 | 18.89° C | 72% | 1017.1 hPa | 0 mm | - | 352 W/m² | - |
| 1788073505 | 18.89° C | 71% | 1017.3 hPa | 0 mm | - | 326 W/m² | - |
| 1788072905 | 18.89° C | 70% | 1017.4 hPa | 0 mm | - | 259 W/m² | - |
| 1788072079 | 17.78° C | 75% | 1017.7 hPa | 0 mm | - | 180 W/m² | - |
| 1788071706 | 17.22° C | 78% | 1017.9 hPa | 0 mm | - | 106 W/m² | - |
| 1788071106 | 17.22° C | 79% | 1017.9 hPa | 0 mm | - | 100 W/m² | - |
| 1788070279 | 16.67° C | 78% | 1018.1 hPa | 0 mm | - | 86 W/m² | - |
| 1788069905 | 16.67° C | 76% | 1018 hPa | 0 mm | - | 73 W/m² | - |
| 1788069306 | 16.67° C | 78% | 1017.9 hPa | 0 mm | - | 53 W/m² | - |
| 1788068479 | 16.67° C | 78% | 1018 hPa | 0 mm | - | 47 W/m² | - |
* Rain latest hour (hover to see other rain measurements)
** Current wind speed in m/s (hover to see current wind gust speed)